sensor_id;sensor_type;location;lat;lon;timestamp;P1;durP1;ratioP1;P2;durP2;ratioP2
9420;SDS011;4749;51.398;5.466;2023-05-13T00:02:25;12.05;;;6.20;;
9420;SDS011;4749;51.398;5.466;2023-05-13T00:04:52;7.60;;;6.47;;
9420;SDS011;4749;51.398;5.466;2023-05-13T00:07:19;7.30;;;5.53;;
9420;SDS011;4749;51.398;5.466;2023-05-13T00:09:46;8.10;;;6.03;;
9420;SDS011;4749;51.398;5.466;2023-05-13T00:12:13;11.13;;;6.47;;
9420;SDS011;4749;51.398;5.466;2023-05-13T00:14:40;7.57;;;6.45;;
9420;SDS011;4749;51.398;5.466;2023-05-13T00:17:07;8.40;;;5.95;;
9420;SDS011;4749;51.398;5.466;2023-05-13T00:19:34;7.47;;;6.10;;
9420;SDS011;4749;51.398;5.466;2023-05-13T00:22:01;6.55;;;5.57;;
9420;SDS011;4749;51.398;5.466;2023-05-13T00:24:29;7.05;;;6.07;;
9420;SDS011;4749;51.398;5.466;2023-05-13T00:26:56;8.05;;;5.95;;
9420;SDS011;4749;51.398;5.466;2023-05-13T00:29:23;7.68;;;6.18;;
9420;SDS011;4749;51.398;5.466;2023-05-13T00:31:50;7.15;;;5.78;;
9420;SDS011;4749;51.398;5.466;2023-05-13T00:34:17;9.18;;;5.80;;
9420;SDS011;4749;51.398;5.466;2023-05-13T00:36:44;8.68;;;6.78;;
9420;SDS011;4749;51.398;5.466;2023-05-13T00:39:12;8.90;;;6.22;;
9420;SDS011;4749;51.398;5.466;2023-05-13T00:41:39;8.20;;;6.30;;
9420;SDS011;4749;51.398;5.466;2023-05-13T00:44:06;7.95;;;5.65;;
9420;SDS011;4749;51.398;5.466;2023-05-13T00:46:33;8.50;;;6.53;;
9420;SDS011;4749;51.398;5.466;2023-05-13T00:49:00;12.32;;;6.18;;
9420;SDS011;4749;51.398;5.466;2023-05-13T00:51:30;7.43;;;5.53;;
9420;SDS011;4749;51.398;5.466;2023-05-13T00:53:58;7.85;;;6.07;;
9420;SDS011;4749;51.398;5.466;2023-05-13T00:56:25;9.68;;;6.10;;
9420;SDS011;4749;51.398;5.466;2023-05-13T00:58:52;8.27;;;5.85;;
9420;SDS011;4749;51.398;5.466;2023-05-13T01:13:08;8.07;;;6.13;;
9420;SDS011;4749;51.398;5.466;2023-05-13T01:15:44;8.48;;;6.43;;
9420;SDS011;4749;51.398;5.466;2023-05-13T01:18:29;11.80;;;6.90;;
9420;SDS011;4749;51.398;5.466;2023-05-13T01:21:03;8.15;;;6.47;;
9420;SDS011;4749;51.398;5.466;2023-05-13T01:23:31;10.45;;;6.00;;
9420;SDS011;4749;51.398;5.466;2023-05-13T01:25:58;10.27;;;5.78;;
9420;SDS011;4749;51.398;5.466;2023-05-13T01:28:26;6.72;;;5.93;;
9420;SDS011;4749;51.398;5.466;2023-05-13T01:30:53;6.18;;;5.07;;
9420;SDS011;4749;51.398;5.466;2023-05-13T01:33:22;7.47;;;5.78;;
9420;SDS011;4749;51.398;5.466;2023-05-13T01:35:50;7.40;;;6.65;;
9420;SDS011;4749;51.398;5.466;2023-05-13T01:38:18;7.25;;;6.00;;
9420;SDS011;4749;51.398;5.466;2023-05-13T01:40:46;6.78;;;6.07;;
9420;SDS011;4749;51.398;5.466;2023-05-13T01:43:13;7.30;;;5.60;;
9420;SDS011;4749;51.398;5.466;2023-05-13T01:45:40;7.00;;;6.05;;
9420;SDS011;4749;51.398;5.466;2023-05-13T01:48:08;12.15;;;6.53;;
9420;SDS011;4749;51.398;5.466;2023-05-13T01:50:35;8.30;;;5.90;;
9420;SDS011;4749;51.398;5.466;2023-05-13T01:53:02;6.85;;;5.80;;
9420;SDS011;4749;51.398;5.466;2023-05-13T01:55:29;7.32;;;5.88;;
9420;SDS011;4749;51.398;5.466;2023-05-13T01:57:58;7.85;;;6.60;;
9420;SDS011;4749;51.398;5.466;2023-05-13T02:00:26;9.20;;;6.35;;
9420;SDS011;4749;51.398;5.466;2023-05-13T02:02:53;6.90;;;6.20;;
9420;SDS011;4749;51.398;5.466;2023-05-13T02:05:20;22.33;;;7.70;;
9420;SDS011;4749;51.398;5.466;2023-05-13T02:07:48;6.95;;;6.25;;
9420;SDS011;4749;51.398;5.466;2023-05-13T02:10:16;11.15;;;6.43;;
9420;SDS011;4749;51.398;5.466;2023-05-13T02:12:43;7.88;;;5.95;;
9420;SDS011;4749;51.398;5.466;2023-05-13T02:15:10;7.50;;;6.47;;
9420;SDS011;4749;51.398;5.466;2023-05-13T02:17:37;7.22;;;5.70;;
9420;SDS011;4749;51.398;5.466;2023-05-13T02:20:05;6.97;;;6.18;;
9420;SDS011;4749;51.398;5.466;2023-05-13T02:22:33;10.65;;;6.10;;
9420;SDS011;4749;51.398;5.466;2023-05-13T02:25:02;10.50;;;5.97;;
9420;SDS011;4749;51.398;5.466;2023-05-13T02:27:30;7.35;;;6.25;;
9420;SDS011;4749;51.398;5.466;2023-05-13T02:29:57;11.10;;;7.07;;
9420;SDS011;4749;51.398;5.466;2023-05-13T02:32:24;7.35;;;5.53;;
9420;SDS011;4749;51.398;5.466;2023-05-13T02:34:51;11.00;;;6.43;;
9420;SDS011;4749;51.398;5.466;2023-05-13T02:37:18;7.18;;;6.07;;
9420;SDS011;4749;51.398;5.466;2023-05-13T02:39:45;8.27;;;6.63;;
9420;SDS011;4749;51.398;5.466;2023-05-13T02:42:12;9.85;;;6.50;;
9420;SDS011;4749;51.398;5.466;2023-05-13T02:44:39;6.75;;;6.03;;
9420;SDS011;4749;51.398;5.466;2023-05-13T02:47:06;7.05;;;6.30;;
9420;SDS011;4749;51.398;5.466;2023-05-13T02:49:33;7.03;;;6.30;;
9420;SDS011;4749;51.398;5.466;2023-05-13T02:52:01;6.88;;;5.68;;
9420;SDS011;4749;51.398;5.466;2023-05-13T02:54:28;6.53;;;5.85;;
9420;SDS011;4749;51.398;5.466;2023-05-13T02:56:55;7.68;;;6.50;;
9420;SDS011;4749;51.398;5.466;2023-05-13T02:59:22;7.78;;;6.25;;
9420;SDS011;4749;51.398;5.466;2023-05-13T03:01:49;9.25;;;6.32;;
9420;SDS011;4749;51.398;5.466;2023-05-13T03:04:17;7.85;;;6.00;;
9420;SDS011;4749;51.398;5.466;2023-05-13T03:06:44;6.75;;;6.03;;
9420;SDS011;4749;51.398;5.466;2023-05-13T03:09:12;6.75;;;5.65;;
9420;SDS011;4749;51.398;5.466;2023-05-13T03:11:39;7.53;;;5.88;;
9420;SDS011;4749;51.398;5.466;2023-05-13T03:14:06;10.02;;;7.25;;
9420;SDS011;4749;51.398;5.466;2023-05-13T03:16:33;8.05;;;6.72;;
9420;SDS011;4749;51.398;5.466;2023-05-13T03:19:00;8.77;;;6.40;;
9420;SDS011;4749;51.398;5.466;2023-05-13T03:21:28;8.05;;;6.25;;
9420;SDS011;4749;51.398;5.466;2023-05-13T03:23:55;9.23;;;6.30;;
9420;SDS011;4749;51.398;5.466;2023-05-13T03:26:22;8.38;;;6.25;;
9420;SDS011;4749;51.398;5.466;2023-05-13T03:28:49;6.15;;;5.47;;
9420;SDS011;4749;51.398;5.466;2023-05-13T03:31:16;6.45;;;5.38;;
9420;SDS011;4749;51.398;5.466;2023-05-13T03:33:43;6.63;;;5.85;;
9420;SDS011;4749;51.398;5.466;2023-05-13T03:36:10;9.48;;;5.93;;
9420;SDS011;4749;51.398;5.466;2023-05-13T03:38:37;8.65;;;6.20;;
9420;SDS011;4749;51.398;5.466;2023-05-13T03:41:04;6.75;;;5.80;;
9420;SDS011;4749;51.398;5.466;2023-05-13T03:43:31;6.93;;;5.45;;
9420;SDS011;4749;51.398;5.466;2023-05-13T03:45:59;8.85;;;5.70;;
9420;SDS011;4749;51.398;5.466;2023-05-13T03:48:27;7.05;;;5.95;;
9420;SDS011;4749;51.398;5.466;2023-05-13T03:50:54;9.63;;;6.10;;
9420;SDS011;4749;51.398;5.466;2023-05-13T03:53:21;7.47;;;5.93;;
9420;SDS011;4749;51.398;5.466;2023-05-13T03:55:49;7.65;;;6.00;;
9420;SDS011;4749;51.398;5.466;2023-05-13T03:58:16;8.95;;;6.03;;
9420;SDS011;4749;51.398;5.466;2023-05-13T04:00:44;9.65;;;5.78;;
9420;SDS011;4749;51.398;5.466;2023-05-13T04:03:15;7.65;;;5.57;;
9420;SDS011;4749;51.398;5.466;2023-05-13T04:05:47;7.88;;;6.35;;
9420;SDS011;4749;51.398;5.466;2023-05-13T04:08:14;7.55;;;6.57;;
9420;SDS011;4749;51.398;5.466;2023-05-13T04:10:42;11.45;;;6.35;;
9420;SDS011;4749;51.398;5.466;2023-05-13T04:13:09;6.72;;;5.95;;
9420;SDS011;4749;51.398;5.466;2023-05-13T04:15:37;7.35;;;6.35;;
9420;SDS011;4749;51.398;5.466;2023-05-13T04:18:04;10.38;;;6.55;;
9420;SDS011;4749;51.398;5.466;2023-05-13T04:20:32;8.48;;;5.88;;
9420;SDS011;4749;51.398;5.466;2023-05-13T04:22:59;9.35;;;6.65;;
9420;SDS011;4749;51.398;5.466;2023-05-13T04:25:26;11.35;;;6.50;;
9420;SDS011;4749;51.398;5.466;2023-05-13T04:27:53;8.45;;;6.25;;
9420;SDS011;4749;51.398;5.466;2023-05-13T04:30:20;9.55;;;6.10;;
9420;SDS011;4749;51.398;5.466;2023-05-13T04:32:48;10.52;;;6.95;;
9420;SDS011;4749;51.398;5.466;2023-05-13T04:35:15;10.40;;;6.65;;
9420;SDS011;4749;51.398;5.466;2023-05-13T04:37:42;10.25;;;7.22;;
9420;SDS011;4749;51.398;5.466;2023-05-13T04:40:10;8.25;;;6.90;;
9420;SDS011;4749;51.398;5.466;2023-05-13T04:42:37;9.40;;;6.38;;
9420;SDS011;4749;51.398;5.466;2023-05-13T04:45:05;9.32;;;6.43;;
9420;SDS011;4749;51.398;5.466;2023-05-13T04:47:32;8.90;;;6.57;;
9420;SDS011;4749;51.398;5.466;2023-05-13T04:50:00;10.05;;;6.95;;
9420;SDS011;4749;51.398;5.466;2023-05-13T04:52:28;6.95;;;6.25;;
9420;SDS011;4749;51.398;5.466;2023-05-13T04:54:55;11.15;;;6.63;;
9420;SDS011;4749;51.398;5.466;2023-05-13T04:57:22;10.57;;;6.65;;
9420;SDS011;4749;51.398;5.466;2023-05-13T04:59:49;8.43;;;6.25;;
9420;SDS011;4749;51.398;5.466;2023-05-13T05:02:16;9.88;;;7.35;;
9420;SDS011;4749;51.398;5.466;2023-05-13T05:04:43;10.18;;;7.00;;
9420;SDS011;4749;51.398;5.466;2023-05-13T05:07:11;7.80;;;6.97;;
9420;SDS011;4749;51.398;5.466;2023-05-13T05:09:38;9.30;;;7.30;;
9420;SDS011;4749;51.398;5.466;2023-05-13T05:12:05;8.88;;;6.53;;
9420;SDS011;4749;51.398;5.466;2023-05-13T05:14:33;8.00;;;7.20;;
9420;SDS011;4749;51.398;5.466;2023-05-13T05:17:00;10.50;;;7.13;;
9420;SDS011;4749;51.398;5.466;2023-05-13T05:19:27;10.57;;;7.07;;
9420;SDS011;4749;51.398;5.466;2023-05-13T05:21:54;8.82;;;7.13;;
9420;SDS011;4749;51.398;5.466;2023-05-13T05:24:21;8.48;;;7.53;;
9420;SDS011;4749;51.398;5.466;2023-05-13T05:26:48;8.95;;;7.78;;
9420;SDS011;4749;51.398;5.466;2023-05-13T05:29:16;10.38;;;8.15;;
9420;SDS011;4749;51.398;5.466;2023-05-13T05:31:43;9.82;;;8.00;;
9420;SDS011;4749;51.398;5.466;2023-05-13T05:34:10;11.93;;;7.65;;
9420;SDS011;4749;51.398;5.466;2023-05-13T05:36:39;9.70;;;7.05;;
9420;SDS011;4749;51.398;5.466;2023-05-13T05:39:06;9.80;;;7.22;;
9420;SDS011;4749;51.398;5.466;2023-05-13T05:41:33;8.98;;;7.65;;
9420;SDS011;4749;51.398;5.466;2023-05-13T05:44:01;10.13;;;7.72;;
9420;SDS011;4749;51.398;5.466;2023-05-13T05:46:28;9.23;;;6.78;;
9420;SDS011;4749;51.398;5.466;2023-05-13T05:48:55;10.05;;;7.82;;
9420;SDS011;4749;51.398;5.466;2023-05-13T05:51:22;9.35;;;7.45;;
9420;SDS011;4749;51.398;5.466;2023-05-13T05:53:49;8.73;;;7.53;;
9420;SDS011;4749;51.398;5.466;2023-05-13T05:56:16;10.80;;;7.32;;
9420;SDS011;4749;51.398;5.466;2023-05-13T05:58:44;10.70;;;7.63;;
9420;SDS011;4749;51.398;5.466;2023-05-13T06:01:11;10.00;;;7.85;;
9420;SDS011;4749;51.398;5.466;2023-05-13T06:03:38;8.48;;;7.68;;
9420;SDS011;4749;51.398;5.466;2023-05-13T06:06:06;12.68;;;7.57;;
9420;SDS011;4749;51.398;5.466;2023-05-13T06:08:33;9.80;;;8.07;;
9420;SDS011;4749;51.398;5.466;2023-05-13T06:11:00;9.75;;;7.72;;
9420;SDS011;4749;51.398;5.466;2023-05-13T06:13:27;8.93;;;7.53;;
9420;SDS011;4749;51.398;5.466;2023-05-13T06:15:54;13.55;;;8.50;;
9420;SDS011;4749;51.398;5.466;2023-05-13T06:18:22;12.57;;;8.05;;
9420;SDS011;4749;51.398;5.466;2023-05-13T06:20:49;9.18;;;7.05;;
9420;SDS011;4749;51.398;5.466;2023-05-13T06:23:16;10.02;;;8.13;;
9420;SDS011;4749;51.398;5.466;2023-05-13T06:25:43;9.45;;;7.88;;
9420;SDS011;4749;51.398;5.466;2023-05-13T06:28:10;9.25;;;7.55;;
9420;SDS011;4749;51.398;5.466;2023-05-13T06:30:38;13.65;;;7.65;;
9420;SDS011;4749;51.398;5.466;2023-05-13T06:33:05;9.52;;;7.65;;
9420;SDS011;4749;51.398;5.466;2023-05-13T06:35:33;8.63;;;7.72;;
9420;SDS011;4749;51.398;5.466;2023-05-13T06:38:00;8.07;;;7.18;;
9420;SDS011;4749;51.398;5.466;2023-05-13T06:40:27;8.23;;;7.18;;
9420;SDS011;4749;51.398;5.466;2023-05-13T06:42:55;9.30;;;7.93;;
9420;SDS011;4749;51.398;5.466;2023-05-13T06:45:22;10.93;;;7.80;;
9420;SDS011;4749;51.398;5.466;2023-05-13T06:47:51;9.50;;;7.75;;
9420;SDS011;4749;51.398;5.466;2023-05-13T06:50:19;9.32;;;8.13;;
9420;SDS011;4749;51.398;5.466;2023-05-13T06:52:46;10.88;;;7.60;;
9420;SDS011;4749;51.398;5.466;2023-05-13T06:55:13;8.57;;;7.47;;
9420;SDS011;4749;51.398;5.466;2023-05-13T06:57:42;8.00;;;7.20;;
9420;SDS011;4749;51.398;5.466;2023-05-13T07:00:12;10.18;;;7.82;;
9420;SDS011;4749;51.398;5.466;2023-05-13T07:02:40;8.75;;;7.78;;
9420;SDS011;4749;51.398;5.466;2023-05-13T07:05:08;9.65;;;7.25;;
9420;SDS011;4749;51.398;5.466;2023-05-13T07:07:37;10.10;;;8.00;;
9420;SDS011;4749;51.398;5.466;2023-05-13T07:10:04;12.45;;;7.88;;
9420;SDS011;4749;51.398;5.466;2023-05-13T07:12:31;11.95;;;8.48;;
9420;SDS011;4749;51.398;5.466;2023-05-13T07:14:59;12.73;;;8.45;;
9420;SDS011;4749;51.398;5.466;2023-05-13T07:17:26;9.70;;;7.95;;
9420;SDS011;4749;51.398;5.466;2023-05-13T07:19:53;9.63;;;8.60;;
9420;SDS011;4749;51.398;5.466;2023-05-13T07:22:20;9.00;;;8.10;;
9420;SDS011;4749;51.398;5.466;2023-05-13T07:24:48;10.57;;;8.88;;
9420;SDS011;4749;51.398;5.466;2023-05-13T07:27:15;9.18;;;8.27;;
9420;SDS011;4749;51.398;5.466;2023-05-13T07:29:42;9.02;;;8.13;;
9420;SDS011;4749;51.398;5.466;2023-05-13T07:32:09;11.88;;;9.05;;
9420;SDS011;4749;51.398;5.466;2023-05-13T07:34:36;10.40;;;8.13;;
9420;SDS011;4749;51.398;5.466;2023-05-13T07:37:04;10.05;;;8.10;;
9420;SDS011;4749;51.398;5.466;2023-05-13T07:39:31;10.70;;;8.20;;
9420;SDS011;4749;51.398;5.466;2023-05-13T07:41:58;9.15;;;7.68;;
9420;SDS011;4749;51.398;5.466;2023-05-13T07:44:25;10.60;;;8.70;;
9420;SDS011;4749;51.398;5.466;2023-05-13T07:46:53;8.77;;;7.88;;
9420;SDS011;4749;51.398;5.466;2023-05-13T07:49:20;9.88;;;8.32;;
9420;SDS011;4749;51.398;5.466;2023-05-13T07:51:47;9.95;;;8.48;;
9420;SDS011;4749;51.398;5.466;2023-05-13T07:54:14;11.02;;;8.00;;
9420;SDS011;4749;51.398;5.466;2023-05-13T07:56:41;12.60;;;8.00;;
9420;SDS011;4749;51.398;5.466;2023-05-13T07:59:09;9.40;;;8.45;;
9420;SDS011;4749;51.398;5.466;2023-05-13T08:01:36;8.55;;;7.57;;
9420;SDS011;4749;51.398;5.466;2023-05-13T08:04:03;9.18;;;7.55;;
9420;SDS011;4749;51.398;5.466;2023-05-13T08:06:31;12.57;;;7.95;;
9420;SDS011;4749;51.398;5.466;2023-05-13T08:08:58;9.80;;;7.57;;
9420;SDS011;4749;51.398;5.466;2023-05-13T08:11:27;11.02;;;7.72;;
9420;SDS011;4749;51.398;5.466;2023-05-13T08:13:54;11.40;;;7.78;;
9420;SDS011;4749;51.398;5.466;2023-05-13T08:16:23;11.38;;;7.63;;
9420;SDS011;4749;51.398;5.466;2023-05-13T08:18:50;8.80;;;7.90;;
9420;SDS011;4749;51.398;5.466;2023-05-13T08:21:17;11.45;;;8.30;;
9420;SDS011;4749;51.398;5.466;2023-05-13T08:23:44;10.48;;;7.97;;
9420;SDS011;4749;51.398;5.466;2023-05-13T08:26:12;9.25;;;8.32;;
9420;SDS011;4749;51.398;5.466;2023-05-13T08:28:39;11.70;;;8.43;;
9420;SDS011;4749;51.398;5.466;2023-05-13T08:31:10;10.80;;;7.43;;
9420;SDS011;4749;51.398;5.466;2023-05-13T08:33:38;11.25;;;8.52;;
9420;SDS011;4749;51.398;5.466;2023-05-13T08:36:11;10.68;;;8.15;;
9420;SDS011;4749;51.398;5.466;2023-05-13T08:38:38;10.10;;;8.25;;
9420;SDS011;4749;51.398;5.466;2023-05-13T08:41:05;9.25;;;7.75;;
9420;SDS011;4749;51.398;5.466;2023-05-13T08:43:33;9.15;;;8.25;;
9420;SDS011;4749;51.398;5.466;2023-05-13T08:46:02;9.45;;;8.25;;
9420;SDS011;4749;51.398;5.466;2023-05-13T08:48:30;11.50;;;8.13;;
9420;SDS011;4749;51.398;5.466;2023-05-13T08:50:59;8.40;;;7.50;;
9420;SDS011;4749;51.398;5.466;2023-05-13T08:53:29;10.43;;;7.72;;
9420;SDS011;4749;51.398;5.466;2023-05-13T08:55:57;9.00;;;8.10;;
9420;SDS011;4749;51.398;5.466;2023-05-13T08:58:25;14.90;;;7.78;;
9420;SDS011;4749;51.398;5.466;2023-05-13T09:00:53;10.98;;;7.53;;
9420;SDS011;4749;51.398;5.466;2023-05-13T09:03:21;8.10;;;7.30;;
9420;SDS011;4749;51.398;5.466;2023-05-13T09:05:48;8.38;;;7.57;;
9420;SDS011;4749;51.398;5.466;2023-05-13T09:08:15;10.73;;;8.85;;
9420;SDS011;4749;51.398;5.466;2023-05-13T09:10:42;7.95;;;6.70;;
9420;SDS011;4749;51.398;5.466;2023-05-13T09:13:12;8.43;;;6.35;;
9420;SDS011;4749;51.398;5.466;2023-05-13T09:15:43;8.43;;;6.85;;
9420;SDS011;4749;51.398;5.466;2023-05-13T09:18:10;12.60;;;7.05;;
9420;SDS011;4749;51.398;5.466;2023-05-13T09:20:41;7.47;;;6.72;;
9420;SDS011;4749;51.398;5.466;2023-05-13T09:23:09;8.10;;;6.32;;
9420;SDS011;4749;51.398;5.466;2023-05-13T09:25:37;9.75;;;6.53;;
9420;SDS011;4749;51.398;5.466;2023-05-13T09:28:05;7.47;;;6.22;;
9420;SDS011;4749;51.398;5.466;2023-05-13T09:30:38;8.05;;;6.75;;
9420;SDS011;4749;51.398;5.466;2023-05-13T09:33:16;7.03;;;6.10;;
9420;SDS011;4749;51.398;5.466;2023-05-13T09:35:49;7.53;;;6.15;;
9420;SDS011;4749;51.398;5.466;2023-05-13T09:40:57;6.22;;;5.60;;
9420;SDS011;4749;51.398;5.466;2023-05-13T09:43:31;8.95;;;6.10;;
9420;SDS011;4749;51.398;5.466;2023-05-13T09:46:00;9.25;;;6.10;;
9420;SDS011;4749;51.398;5.466;2023-05-13T09:48:30;7.78;;;5.95;;
9420;SDS011;4749;51.398;5.466;2023-05-13T09:50:59;8.90;;;6.07;;
9420;SDS011;4749;51.398;5.466;2023-05-13T09:53:27;7.07;;;5.40;;
9420;SDS011;4749;51.398;5.466;2023-05-13T09:55:55;8.02;;;6.38;;
9420;SDS011;4749;51.398;5.466;2023-05-13T09:58:24;6.75;;;6.05;;
9420;SDS011;4749;51.398;5.466;2023-05-13T10:00:54;7.00;;;5.85;;
9420;SDS011;4749;51.398;5.466;2023-05-13T10:03:22;8.30;;;6.25;;
9420;SDS011;4749;51.398;5.466;2023-05-13T10:05:50;7.53;;;6.68;;
9420;SDS011;4749;51.398;5.466;2023-05-13T10:08:18;7.13;;;6.40;;
9420;SDS011;4749;51.398;5.466;2023-05-13T10:10:47;6.57;;;5.70;;
9420;SDS011;4749;51.398;5.466;2023-05-13T10:13:19;9.40;;;6.40;;
9420;SDS011;4749;51.398;5.466;2023-05-13T10:15:51;7.72;;;5.93;;
9420;SDS011;4749;51.398;5.466;2023-05-13T10:18:20;8.68;;;5.78;;
9420;SDS011;4749;51.398;5.466;2023-05-13T10:20:51;10.70;;;5.30;;
9420;SDS011;4749;51.398;5.466;2023-05-13T10:23:20;7.57;;;5.78;;
9420;SDS011;4749;51.398;5.466;2023-05-13T10:25:49;7.60;;;5.88;;
9420;SDS011;4749;51.398;5.466;2023-05-13T10:28:18;8.27;;;5.55;;
9420;SDS011;4749;51.398;5.466;2023-05-13T10:30:47;11.82;;;6.40;;
9420;SDS011;4749;51.398;5.466;2023-05-13T10:33:16;8.85;;;5.38;;
9420;SDS011;4749;51.398;5.466;2023-05-13T10:35:55;6.03;;;4.88;;
9420;SDS011;4749;51.398;5.466;2023-05-13T10:45:03;7.28;;;5.30;;
9420;SDS011;4749;51.398;5.466;2023-05-13T10:47:31;6.93;;;4.65;;
9420;SDS011;4749;51.398;5.466;2023-05-13T10:49:59;7.65;;;5.20;;
9420;SDS011;4749;51.398;5.466;2023-05-13T10:52:54;5.93;;;5.28;;
9420;SDS011;4749;51.398;5.466;2023-05-13T10:55:24;4.80;;;4.18;;
9420;SDS011;4749;51.398;5.466;2023-05-13T10:58:08;6.50;;;5.22;;
9420;SDS011;4749;51.398;5.466;2023-05-13T11:00:38;5.05;;;4.55;;
9420;SDS011;4749;51.398;5.466;2023-05-13T11:03:08;5.47;;;4.80;;
9420;SDS011;4749;51.398;5.466;2023-05-13T11:05:56;5.85;;;5.05;;
9420;SDS011;4749;51.398;5.466;2023-05-13T11:08:50;6.03;;;4.32;;
9420;SDS011;4749;51.398;5.466;2023-05-13T11:13:50;3.78;;;3.15;;
9420;SDS011;4749;51.398;5.466;2023-05-13T11:16:46;7.35;;;3.88;;
9420;SDS011;4749;51.398;5.466;2023-05-13T11:19:43;6.18;;;3.90;;
9420;SDS011;4749;51.398;5.466;2023-05-13T11:22:13;5.22;;;3.45;;
9420;SDS011;4749;51.398;5.466;2023-05-13T11:24:43;5.13;;;3.92;;
9420;SDS011;4749;51.398;5.466;2023-05-13T11:27:27;6.18;;;4.13;;
9420;SDS011;4749;51.398;5.466;2023-05-13T11:30:23;10.30;;;4.15;;
9420;SDS011;4749;51.398;5.466;2023-05-13T11:32:57;3.80;;;3.50;;
9420;SDS011;4749;51.398;5.466;2023-05-13T11:35:28;4.68;;;3.40;;
9420;SDS011;4749;51.398;5.466;2023-05-13T11:38:00;5.70;;;3.45;;
9420;SDS011;4749;51.398;5.466;2023-05-13T11:40:32;4.03;;;2.85;;
9420;SDS011;4749;51.398;5.466;2023-05-13T11:43:01;4.75;;;2.60;;
9420;SDS011;4749;51.398;5.466;2023-05-13T11:45:30;3.88;;;2.60;;
9420;SDS011;4749;51.398;5.466;2023-05-13T11:47:58;4.20;;;2.72;;
9420;SDS011;4749;51.398;5.466;2023-05-13T11:50:50;4.78;;;2.70;;
9420;SDS011;4749;51.398;5.466;2023-05-13T11:53:19;4.88;;;2.58;;
9420;SDS011;4749;51.398;5.466;2023-05-13T11:55:47;3.88;;;2.90;;
9420;SDS011;4749;51.398;5.466;2023-05-13T11:58:15;5.30;;;2.75;;
9420;SDS011;4749;51.398;5.466;2023-05-13T12:00:42;3.75;;;2.15;;
9420;SDS011;4749;51.398;5.466;2023-05-13T12:03:11;7.65;;;2.58;;
9420;SDS011;4749;51.398;5.466;2023-05-13T12:05:41;3.25;;;2.40;;
9420;SDS011;4749;51.398;5.466;2023-05-13T12:08:10;5.15;;;2.60;;
9420;SDS011;4749;51.398;5.466;2023-05-13T12:10:43;4.90;;;2.58;;
9420;SDS011;4749;51.398;5.466;2023-05-13T12:13:12;4.07;;;2.67;;
9420;SDS011;4749;51.398;5.466;2023-05-13T12:15:40;3.05;;;2.10;;
9420;SDS011;4749;51.398;5.466;2023-05-13T12:18:08;3.42;;;2.50;;
9420;SDS011;4749;51.398;5.466;2023-05-13T12:20:35;3.53;;;2.75;;
9420;SDS011;4749;51.398;5.466;2023-05-13T12:23:03;5.30;;;2.88;;
9420;SDS011;4749;51.398;5.466;2023-05-13T12:28:20;4.18;;;2.67;;
9420;SDS011;4749;51.398;5.466;2023-05-13T12:30:58;4.70;;;2.53;;
9420;SDS011;4749;51.398;5.466;2023-05-13T12:33:32;4.05;;;2.30;;
9420;SDS011;4749;51.398;5.466;2023-05-13T12:41:40;4.00;;;2.42;;
9420;SDS011;4749;51.398;5.466;2023-05-13T12:44:14;2.95;;;2.40;;
9420;SDS011;4749;51.398;5.466;2023-05-13T12:49:24;4.75;;;2.60;;
9420;SDS011;4749;51.398;5.466;2023-05-13T12:51:51;2.90;;;2.22;;
9420;SDS011;4749;51.398;5.466;2023-05-13T12:54:20;3.70;;;2.42;;
9420;SDS011;4749;51.398;5.466;2023-05-13T12:56:47;3.25;;;2.50;;
9420;SDS011;4749;51.398;5.466;2023-05-13T12:59:15;4.57;;;2.78;;
9420;SDS011;4749;51.398;5.466;2023-05-13T13:01:44;6.40;;;2.90;;
9420;SDS011;4749;51.398;5.466;2023-05-13T13:04:13;6.25;;;2.50;;
9420;SDS011;4749;51.398;5.466;2023-05-13T13:06:42;4.22;;;2.80;;
9420;SDS011;4749;51.398;5.466;2023-05-13T13:09:09;4.28;;;2.40;;
9420;SDS011;4749;51.398;5.466;2023-05-13T13:11:36;3.33;;;2.08;;
9420;SDS011;4749;51.398;5.466;2023-05-13T13:14:04;4.95;;;2.63;;
9420;SDS011;4749;51.398;5.466;2023-05-13T13:16:31;4.32;;;2.80;;
9420;SDS011;4749;51.398;5.466;2023-05-13T13:18:58;4.07;;;2.55;;
9420;SDS011;4749;51.398;5.466;2023-05-13T13:21:27;4.68;;;2.33;;
9420;SDS011;4749;51.398;5.466;2023-05-13T13:23:54;5.28;;;2.95;;
9420;SDS011;4749;51.398;5.466;2023-05-13T13:26:21;3.75;;;2.10;;
9420;SDS011;4749;51.398;5.466;2023-05-13T13:28:48;3.63;;;2.28;;
9420;SDS011;4749;51.398;5.466;2023-05-13T13:31:15;3.10;;;2.10;;
9420;SDS011;4749;51.398;5.466;2023-05-13T13:33:43;3.03;;;2.40;;
9420;SDS011;4749;51.398;5.466;2023-05-13T13:36:10;10.95;;;2.95;;
9420;SDS011;4749;51.398;5.466;2023-05-13T13:38:37;3.10;;;2.20;;
9420;SDS011;4749;51.398;5.466;2023-05-13T13:41:04;3.80;;;2.78;;
9420;SDS011;4749;51.398;5.466;2023-05-13T13:43:31;3.42;;;2.70;;
9420;SDS011;4749;51.398;5.466;2023-05-13T13:45:58;3.13;;;2.50;;
9420;SDS011;4749;51.398;5.466;2023-05-13T13:48:26;4.10;;;2.65;;
9420;SDS011;4749;51.398;5.466;2023-05-13T13:50:53;6.43;;;2.42;;
9420;SDS011;4749;51.398;5.466;2023-05-13T13:53:20;4.15;;;2.70;;
9420;SDS011;4749;51.398;5.466;2023-05-13T13:55:47;3.97;;;2.65;;
9420;SDS011;4749;51.398;5.466;2023-05-13T13:58:15;4.60;;;2.80;;
9420;SDS011;4749;51.398;5.466;2023-05-13T14:00:42;3.75;;;2.83;;
9420;SDS011;4749;51.398;5.466;2023-05-13T14:03:09;2.85;;;2.15;;
9420;SDS011;4749;51.398;5.466;2023-05-13T14:05:36;3.35;;;2.25;;
9420;SDS011;4749;51.398;5.466;2023-05-13T14:08:03;3.67;;;2.38;;
9420;SDS011;4749;51.398;5.466;2023-05-13T14:10:31;4.03;;;2.35;;
9420;SDS011;4749;51.398;5.466;2023-05-13T14:12:58;5.55;;;2.60;;
9420;SDS011;4749;51.398;5.466;2023-05-13T14:15:25;3.33;;;2.20;;
9420;SDS011;4749;51.398;5.466;2023-05-13T14:17:55;4.22;;;2.20;;
9420;SDS011;4749;51.398;5.466;2023-05-13T14:20:22;4.93;;;2.35;;
9420;SDS011;4749;51.398;5.466;2023-05-13T14:22:50;4.22;;;2.55;;
9420;SDS011;4749;51.398;5.466;2023-05-13T14:25:17;5.35;;;2.45;;
9420;SDS011;4749;51.398;5.466;2023-05-13T14:27:44;5.85;;;2.47;;
9420;SDS011;4749;51.398;5.466;2023-05-13T14:30:12;3.90;;;2.10;;
9420;SDS011;4749;51.398;5.466;2023-05-13T14:32:41;7.82;;;2.67;;
9420;SDS011;4749;51.398;5.466;2023-05-13T14:35:11;5.07;;;2.47;;
9420;SDS011;4749;51.398;5.466;2023-05-13T14:37:39;6.72;;;1.90;;
9420;SDS011;4749;51.398;5.466;2023-05-13T14:40:08;3.03;;;2.58;;
9420;SDS011;4749;51.398;5.466;2023-05-13T14:42:35;4.72;;;2.40;;
9420;SDS011;4749;51.398;5.466;2023-05-13T14:45:03;3.75;;;2.47;;
9420;SDS011;4749;51.398;5.466;2023-05-13T14:47:31;4.55;;;2.22;;
9420;SDS011;4749;51.398;5.466;2023-05-13T14:49:58;2.95;;;2.15;;
9420;SDS011;4749;51.398;5.466;2023-05-13T14:52:26;6.75;;;2.17;;
9420;SDS011;4749;51.398;5.466;2023-05-13T14:54:53;3.17;;;2.33;;
9420;SDS011;4749;51.398;5.466;2023-05-13T14:57:21;3.42;;;2.20;;
9420;SDS011;4749;51.398;5.466;2023-05-13T14:59:48;4.60;;;2.65;;
9420;SDS011;4749;51.398;5.466;2023-05-13T15:02:15;3.28;;;2.03;;
9420;SDS011;4749;51.398;5.466;2023-05-13T15:04:42;3.47;;;2.30;;
9420;SDS011;4749;51.398;5.466;2023-05-13T15:07:10;3.75;;;2.30;;
9420;SDS011;4749;51.398;5.466;2023-05-13T15:09:37;3.58;;;2.15;;
9420;SDS011;4749;51.398;5.466;2023-05-13T15:12:04;2.08;;;1.88;;
9420;SDS011;4749;51.398;5.466;2023-05-13T15:14:33;4.15;;;1.98;;
9420;SDS011;4749;51.398;5.466;2023-05-13T15:17:03;8.55;;;1.90;;
9420;SDS011;4749;51.398;5.466;2023-05-13T15:19:49;4.05;;;1.98;;
9420;SDS011;4749;51.398;5.466;2023-05-13T15:22:20;4.60;;;2.00;;
9420;SDS011;4749;51.398;5.466;2023-05-13T15:24:48;2.35;;;2.03;;
9420;SDS011;4749;51.398;5.466;2023-05-13T15:27:19;4.20;;;2.17;;
9420;SDS011;4749;51.398;5.466;2023-05-13T15:29:47;2.28;;;1.98;;
9420;SDS011;4749;51.398;5.466;2023-05-13T15:32:17;5.45;;;2.38;;
9420;SDS011;4749;51.398;5.466;2023-05-13T15:34:45;4.95;;;2.28;;
9420;SDS011;4749;51.398;5.466;2023-05-13T15:37:13;2.40;;;2.20;;
9420;SDS011;4749;51.398;5.466;2023-05-13T15:39:43;2.60;;;2.08;;
9420;SDS011;4749;51.398;5.466;2023-05-13T15:42:10;2.53;;;2.08;;
9420;SDS011;4749;51.398;5.466;2023-05-13T15:44:39;4.25;;;1.75;;
9420;SDS011;4749;51.398;5.466;2023-05-13T15:47:06;6.32;;;2.22;;
9420;SDS011;4749;51.398;5.466;2023-05-13T15:49:33;2.92;;;1.77;;
9420;SDS011;4749;51.398;5.466;2023-05-13T15:52:01;3.72;;;2.10;;
9420;SDS011;4749;51.398;5.466;2023-05-13T15:54:32;4.07;;;2.08;;
9420;SDS011;4749;51.398;5.466;2023-05-13T15:56:59;10.45;;;2.33;;